createdAt,value
2018-12-07T00:02:23.512Z,9.68
2018-12-07T00:04:53.342Z,9.68
2018-12-07T00:07:23.126Z,9.72
2018-12-07T00:09:53.982Z,9.71
2018-12-07T00:12:24.043Z,9.70
2018-12-07T00:14:54.602Z,9.71
2018-12-07T00:17:24.559Z,9.72
2018-12-07T00:19:54.596Z,9.74
2018-12-07T00:22:24.462Z,9.76
2018-12-07T00:24:55.293Z,9.76
2018-12-07T00:27:25.753Z,9.76
2018-12-07T00:29:55.622Z,9.78
2018-12-07T00:32:34.224Z,9.79
2018-12-07T00:35:04.918Z,9.81
2018-12-07T00:37:35.468Z,9.82
2018-12-07T00:41:35.050Z,9.82
2018-12-07T00:44:06.586Z,9.76
2018-12-07T00:46:36.569Z,9.78
2018-12-07T00:49:06.618Z,9.81
2018-12-07T00:51:36.588Z,9.83
2018-12-07T00:54:06.592Z,9.84
2018-12-07T00:56:36.762Z,9.83
2018-12-07T00:59:07.184Z,9.84
2018-12-07T01:01:37.278Z,9.82
2018-12-07T01:04:07.630Z,9.79
2018-12-07T01:06:37.504Z,9.81
2018-12-07T01:09:10.646Z,9.85
2018-12-07T01:11:42.002Z,9.84
2018-12-07T01:14:12.646Z,9.83
2018-12-07T01:16:42.859Z,9.83
2018-12-07T01:19:12.850Z,9.84
2018-12-07T01:21:42.860Z,9.83
2018-12-07T01:24:12.880Z,9.85
2018-12-07T01:27:17.424Z,9.86
2018-12-07T01:29:47.370Z,9.82
2018-12-07T01:32:17.448Z,9.82
2018-12-07T01:34:47.530Z,9.84
2018-12-07T01:37:17.621Z,9.85
2018-12-07T01:39:47.684Z,9.85
2018-12-07T01:42:18.378Z,9.84
2018-12-07T01:44:48.654Z,9.86
2018-12-07T01:47:19.820Z,9.85
2018-12-07T01:49:49.645Z,9.81
2018-12-07T01:52:21.184Z,9.81
2018-12-07T01:54:51.352Z,9.80
2018-12-07T01:57:21.430Z,9.83
2018-12-07T01:59:52.888Z,9.81
2018-12-07T02:02:22.922Z,9.81
2018-12-07T02:08:28.947Z,9.79
2018-12-07T02:10:59.334Z,9.81
2018-12-07T02:13:29.316Z,9.83
2018-12-07T02:15:59.234Z,9.82
2018-12-07T02:18:30.069Z,9.81
2018-12-07T02:21:02.718Z,9.78
2018-12-07T02:23:33.188Z,9.76
2018-12-07T02:26:03.065Z,9.75
2018-12-07T02:28:32.944Z,9.75
2018-12-07T02:31:02.874Z,9.77
2018-12-07T02:33:33.122Z,9.79
2018-12-07T02:36:03.204Z,9.80
2018-12-07T02:38:33.093Z,9.79
2018-12-07T02:41:03.196Z,9.77
2018-12-07T02:43:33.327Z,9.75
2018-12-07T02:46:05.800Z,9.71
2018-12-07T02:48:47.872Z,9.70
2018-12-07T02:51:18.513Z,9.71
2018-12-07T02:53:49.841Z,9.71
2018-12-07T02:56:20.228Z,9.73
2018-12-07T02:58:51.982Z,9.75
2018-12-07T03:01:22.639Z,9.73
2018-12-07T03:03:53.028Z,9.73
2018-12-07T03:06:23.751Z,9.74
2018-12-07T03:08:53.836Z,9.74
2018-12-07T03:11:23.804Z,9.71
2018-12-07T03:17:29.422Z,9.74
2018-12-07T03:19:59.429Z,9.76
2018-12-07T03:22:29.958Z,9.76
2018-12-07T03:25:00.415Z,9.78
2018-12-07T03:27:30.701Z,9.79
2018-12-07T03:33:36.281Z,9.75
2018-12-07T03:36:08.174Z,9.72
2018-12-07T03:38:38.090Z,9.72
2018-12-07T03:41:08.432Z,9.71
2018-12-07T03:43:38.987Z,9.74
2018-12-07T03:49:46.069Z,9.75
2018-12-07T03:52:16.166Z,9.75
2018-12-07T03:54:46.054Z,9.77
2018-12-07T03:57:15.958Z,9.78
2018-12-07T03:59:45.932Z,9.73
2018-12-07T04:02:16.844Z,9.72
2018-12-07T04:04:46.805Z,9.72
2018-12-07T04:07:16.715Z,9.75
2018-12-07T04:09:46.796Z,9.75
2018-12-07T04:12:16.923Z,9.75
2018-12-07T04:14:47.424Z,9.73
2018-12-07T04:17:17.831Z,9.72
2018-12-07T04:19:47.830Z,9.74
2018-12-07T04:22:17.748Z,9.72
2018-12-07T04:24:47.791Z,9.65
2018-12-07T04:27:18.478Z,9.66
2018-12-07T04:29:49.051Z,9.68
2018-12-07T04:32:19.642Z,9.69
2018-12-07T04:34:50.419Z,9.70
2018-12-07T04:37:20.483Z,9.70
2018-12-07T04:39:50.499Z,9.71
2018-12-07T04:42:20.665Z,9.72
2018-12-07T04:44:50.720Z,9.70
2018-12-07T04:47:20.855Z,9.65
2018-12-07T04:53:35.811Z,9.57
2018-12-07T04:56:05.800Z,9.62
2018-12-07T04:59:38.716Z,9.64
2018-12-07T05:06:00.754Z,9.64
2018-12-07T05:08:30.737Z,9.66
2018-12-07T05:11:01.264Z,9.63
2018-12-07T05:13:31.193Z,9.65
2018-12-07T05:16:01.717Z,9.65
2018-12-07T05:25:55.569Z,9.64
2018-12-07T05:32:13.917Z,9.61
2018-12-07T05:34:45.176Z,9.64
2018-12-07T05:37:15.195Z,9.64
2018-12-07T05:39:45.592Z,9.66
2018-12-07T05:42:16.373Z,9.65
2018-12-07T05:44:46.536Z,9.62
2018-12-07T05:47:17.838Z,9.63
2018-12-07T05:49:47.867Z,9.63
2018-12-07T05:52:18.041Z,9.66
2018-12-07T05:54:48.138Z,9.66
2018-12-07T05:58:15.106Z,9.68
2018-12-07T06:00:44.996Z,9.65
2018-12-07T06:03:15.108Z,9.65
2018-12-07T06:05:45.603Z,9.63
2018-12-07T06:08:15.890Z,9.63
2018-12-07T06:14:41.194Z,9.62
2018-12-07T06:17:37.052Z,9.62
2018-12-07T06:27:32.257Z,9.62
2018-12-07T06:30:02.232Z,9.59
2018-12-07T06:32:36.109Z,9.60
2018-12-07T06:35:05.872Z,9.59
2018-12-07T06:37:35.875Z,9.56
2018-12-07T06:40:07.595Z,9.55
2018-12-07T06:42:37.543Z,9.54
2018-12-07T06:45:08.032Z,9.53
2018-12-07T06:47:38.407Z,9.57
2018-12-07T06:50:09.239Z,9.56
2018-12-07T06:52:39.282Z,9.57
2018-12-07T06:55:09.273Z,9.54
2018-12-07T06:57:39.113Z,9.51
2018-12-07T07:00:10.349Z,9.53
2018-12-07T07:02:40.197Z,9.51
2018-12-07T07:05:11.140Z,9.51
2018-12-07T07:07:41.039Z,9.52
2018-12-07T07:10:13.441Z,9.53
2018-12-07T07:12:43.233Z,9.53
2018-12-07T07:15:13.463Z,9.49
2018-12-07T07:17:43.367Z,9.54
2018-12-07T07:20:13.605Z,9.61
2018-12-07T07:22:43.419Z,9.60
2018-12-07T07:25:13.719Z,9.62
2018-12-07T07:27:43.549Z,9.64
2018-12-07T07:30:13.375Z,9.66
2018-12-07T07:32:43.625Z,9.70
2018-12-07T07:35:13.861Z,9.70
2018-12-07T07:37:43.658Z,9.74
2018-12-07T07:40:13.442Z,9.74
2018-12-07T07:42:43.267Z,9.77
2018-12-07T07:45:13.099Z,9.77
2018-12-07T07:47:42.893Z,9.76
2018-12-07T07:50:12.689Z,9.77
2018-12-07T07:52:42.934Z,9.80
2018-12-07T07:55:12.735Z,9.83
2018-12-07T07:57:42.785Z,9.81
2018-12-07T08:00:13.323Z,9.88
2018-12-07T08:02:43.099Z,9.92
2018-12-07T08:05:12.889Z,9.91
2018-12-07T08:07:42.847Z,9.92
2018-12-07T08:10:12.647Z,9.93
2018-12-07T08:12:42.488Z,9.95
2018-12-07T08:15:12.322Z,9.93
2018-12-07T08:17:42.359Z,10.00
2018-12-07T08:20:12.239Z,10.04
2018-12-07T08:22:42.137Z,10.09
2018-12-07T08:25:11.923Z,10.09
2018-12-07T08:27:41.714Z,10.12
2018-12-07T08:30:13.503Z,10.16
2018-12-07T08:32:43.355Z,10.15
2018-12-07T08:35:13.887Z,10.11
2018-12-07T08:37:43.689Z,10.07
2018-12-07T08:40:13.645Z,10.09
2018-12-07T08:42:43.461Z,10.09
2018-12-07T08:45:13.309Z,10.14
2018-12-07T08:47:43.097Z,10.23
2018-12-07T08:50:13.341Z,10.28
2018-12-07T08:52:44.091Z,10.29
2018-12-07T08:55:14.560Z,10.26
2018-12-07T08:57:44.390Z,10.28
2018-12-07T09:00:15.175Z,10.28
2018-12-07T09:02:44.909Z,10.30
2018-12-07T09:05:15.391Z,10.32
2018-12-07T09:07:45.275Z,10.29
2018-12-07T09:10:15.536Z,10.32
2018-12-07T09:12:45.341Z,10.35
2018-12-07T09:15:15.077Z,10.39
2018-12-07T09:17:44.862Z,10.49
2018-12-07T09:20:15.915Z,10.56
2018-12-07T09:22:45.955Z,10.64
2018-12-07T09:26:16.385Z,10.71
2018-12-07T09:28:46.447Z,10.73
2018-12-07T09:31:16.275Z,10.76
2018-12-07T09:33:46.075Z,10.79
2018-12-07T09:36:15.857Z,10.82
2018-12-07T09:38:45.668Z,10.81
2018-12-07T09:41:15.479Z,10.89
2018-12-07T09:43:45.319Z,10.90
2018-12-07T09:46:15.167Z,10.94
2018-12-07T09:48:44.989Z,10.98
2018-12-07T09:51:15.158Z,10.97
2018-12-07T09:53:45.260Z,10.97
2018-12-07T09:56:15.091Z,11.06
2018-12-07T09:58:44.871Z,11.03
2018-12-07T10:01:15.313Z,11.09
2018-12-07T10:03:45.126Z,11.09
2018-12-07T10:13:07.874Z,10.97
2018-12-07T10:15:35.248Z,10.99
2018-12-07T10:18:05.729Z,11.01
2018-12-07T10:20:36.117Z,11.07
2018-12-07T10:23:05.950Z,11.08
2018-12-07T10:25:35.713Z,11.08
2018-12-07T10:28:05.832Z,11.08
2018-12-07T10:30:35.613Z,11.11
2018-12-07T10:33:05.843Z,11.14
2018-12-07T10:35:35.974Z,11.14
2018-12-07T10:38:06.067Z,11.17
2018-12-07T10:40:35.958Z,11.16
2018-12-07T10:43:06.089Z,11.14
2018-12-07T10:45:35.949Z,11.10
2018-12-07T10:48:06.033Z,11.11
2018-12-07T10:50:35.830Z,11.16
2018-12-07T10:53:05.619Z,11.15
2018-12-07T10:55:35.881Z,11.24
2018-12-07T10:58:05.622Z,11.26
2018-12-07T11:00:40.649Z,11.27
2018-12-07T11:03:16.255Z,11.31
2018-12-07T11:05:51.760Z,11.33
2018-12-07T11:08:27.505Z,11.36
2018-12-07T11:11:00.040Z,11.40
2018-12-07T11:13:34.217Z,11.43
2018-12-07T11:16:09.100Z,11.46
2018-12-07T11:18:44.355Z,11.50
2018-12-07T11:22:20.029Z,11.60
2018-12-07T11:24:55.455Z,11.82
2018-12-07T11:27:30.423Z,12.18
2018-12-07T11:30:05.357Z,12.00
2018-12-07T11:32:39.209Z,12.05
2018-12-07T11:35:14.764Z,12.32
2018-12-07T11:37:44.546Z,12.53
2018-12-07T11:40:14.803Z,12.63
2018-12-07T11:42:44.617Z,12.68
2018-12-07T11:45:14.421Z,12.75
2018-12-07T11:47:44.621Z,12.61
2018-12-07T11:50:14.519Z,12.55
2018-12-07T11:52:44.386Z,12.53
2018-12-07T11:55:14.561Z,12.39
2018-12-07T11:57:44.759Z,12.29
2018-12-07T12:00:14.609Z,12.23
2018-12-07T12:02:44.443Z,12.07
2018-12-07T12:05:14.267Z,12.00
2018-12-07T12:07:44.063Z,11.86
2018-12-07T12:10:13.822Z,11.80
2018-12-07T12:12:43.582Z,11.65
2018-12-07T12:15:13.497Z,11.72
2018-12-07T12:17:43.281Z,11.70
2018-12-07T12:20:14.324Z,11.61
2018-12-07T12:22:44.058Z,11.45
2018-12-07T12:25:13.891Z,11.46
2018-12-07T12:27:43.695Z,11.55
2018-12-07T12:30:13.502Z,11.50
2018-12-07T12:32:43.246Z,11.48
2018-12-07T12:35:13.087Z,11.54
2018-12-07T12:37:43.310Z,11.56
2018-12-07T12:40:13.124Z,11.41
2018-12-07T12:42:42.848Z,11.37
2018-12-07T12:45:12.662Z,11.34
2018-12-07T12:47:42.570Z,11.25
2018-12-07T12:50:17.596Z,11.24
2018-12-07T12:52:47.376Z,11.14
2018-12-07T12:55:18.314Z,11.09
2018-12-07T12:57:48.073Z,11.00
2018-12-07T13:00:18.016Z,10.94
2018-12-07T13:02:48.209Z,10.90
2018-12-07T13:05:18.293Z,10.85
2018-12-07T13:07:48.703Z,10.88
2018-12-07T13:10:18.552Z,10.90
2018-12-07T13:12:48.638Z,10.94
2018-12-07T13:15:18.483Z,10.93
2018-12-07T13:17:48.249Z,10.96
2018-12-07T13:20:18.142Z,11.00
2018-12-07T13:22:48.550Z,10.98
2018-12-07T13:25:18.632Z,11.04
2018-12-07T13:27:48.533Z,11.12
2018-12-07T13:30:18.638Z,11.21
2018-12-07T13:32:48.588Z,11.22
2018-12-07T13:35:18.344Z,11.11
2018-12-07T13:37:48.243Z,11.09
2018-12-07T13:40:18.292Z,11.12
2018-12-07T13:42:48.671Z,11.03
2018-12-07T13:45:18.858Z,10.99
2018-12-07T13:47:49.462Z,10.88
2018-12-07T13:50:24.977Z,10.91
2018-12-07T13:52:55.729Z,10.92
2018-12-07T13:55:26.161Z,10.96
2018-12-07T13:57:56.900Z,10.92
2018-12-07T14:00:26.963Z,10.89
2018-12-07T14:02:57.462Z,10.93
2018-12-07T14:05:32.198Z,10.94
2018-12-07T14:08:00.034Z,10.81
2018-12-07T14:10:30.033Z,10.82
2018-12-07T14:12:59.879Z,10.82
2018-12-07T14:15:30.126Z,10.85
2018-12-07T14:18:01.705Z,10.84
2018-12-07T14:20:31.864Z,10.82
2018-12-07T14:23:02.062Z,10.88
2018-12-07T14:25:32.086Z,10.99
2018-12-07T14:28:02.529Z,11.00
2018-12-07T14:30:32.743Z,11.03
2018-12-07T14:33:02.987Z,11.03
2018-12-07T14:35:33.305Z,11.01
2018-12-07T14:38:03.449Z,11.03
2018-12-07T14:40:33.598Z,11.02
2018-12-07T14:43:03.645Z,10.92
2018-12-07T14:45:35.003Z,10.91
2018-12-07T14:48:05.127Z,10.89
2018-12-07T14:50:35.548Z,10.85
2018-12-07T14:53:06.132Z,10.81
2018-12-07T14:55:36.835Z,10.78
2018-12-07T14:58:07.084Z,10.77
2018-12-07T15:00:37.209Z,10.79
2018-12-07T15:03:07.614Z,10.75
2018-12-07T15:05:38.654Z,10.71
2018-12-07T15:08:08.817Z,10.71
2018-12-07T15:10:39.024Z,10.67
2018-12-07T15:13:09.324Z,10.67
2018-12-07T15:15:39.907Z,10.66
2018-12-07T15:18:10.047Z,10.67
2018-12-07T15:20:40.258Z,10.69
2018-12-07T15:23:10.376Z,10.69
2018-12-07T15:25:40.412Z,10.67
2018-12-07T15:28:10.752Z,10.62
2018-12-07T15:30:40.956Z,10.58
2018-12-07T15:33:11.110Z,10.54
2018-12-07T15:35:41.209Z,10.51
2018-12-07T15:38:11.137Z,10.50
2018-12-07T15:40:42.117Z,10.50
2018-12-07T15:43:12.292Z,10.48
2018-12-07T15:45:42.459Z,10.47
2018-12-07T15:48:12.689Z,10.44
2018-12-07T15:50:42.855Z,10.39
2018-12-07T15:53:13.230Z,10.39
2018-12-07T15:55:45.566Z,10.35
2018-12-07T15:58:15.355Z,10.30
2018-12-07T16:00:45.613Z,10.32
2018-12-07T16:03:15.872Z,10.30
2018-12-07T16:05:46.363Z,10.31
2018-12-07T16:08:16.450Z,10.32
2018-12-07T16:10:49.346Z,10.30
2018-12-07T16:13:18.666Z,10.25
2018-12-07T16:15:48.464Z,10.23
2018-12-07T16:18:18.638Z,10.21
2018-12-07T16:20:48.760Z,10.21
2018-12-07T16:23:18.539Z,10.16
2018-12-07T16:25:48.970Z,10.15
2018-12-07T16:28:19.389Z,10.18
2018-12-07T16:30:49.506Z,10.19
2018-12-07T16:33:19.610Z,10.18
2018-12-07T16:35:49.713Z,10.19
2018-12-07T16:38:19.675Z,10.18
2018-12-07T16:40:50.029Z,10.19
2018-12-07T16:43:20.243Z,10.25
2018-12-07T16:45:50.474Z,10.30
2018-12-07T16:48:20.664Z,10.36
2018-12-07T16:50:51.182Z,10.37
2018-12-07T16:53:21.341Z,10.38
2018-12-07T16:55:51.330Z,10.40
2018-12-07T16:58:21.580Z,10.41
2018-12-07T17:00:51.866Z,10.37
2018-12-07T17:03:21.986Z,10.38
2018-12-07T17:05:52.047Z,10.42
2018-12-07T17:08:22.523Z,10.42
2018-12-07T17:10:52.790Z,10.44
2018-12-07T17:13:23.557Z,10.44
2018-12-07T17:15:53.733Z,10.44
2018-12-07T17:18:23.908Z,10.45
2018-12-07T17:20:55.233Z,10.40
2018-12-07T17:23:25.500Z,10.40
2018-12-07T17:25:55.565Z,10.36
2018-12-07T17:28:25.350Z,10.36
2018-12-07T17:30:56.019Z,10.36
2018-12-07T17:33:26.231Z,10.33
2018-12-07T17:35:56.016Z,10.29
2018-12-07T17:38:26.132Z,10.28
2018-12-07T17:40:56.457Z,10.26
2018-12-07T17:43:26.607Z,10.23
2018-12-07T17:45:56.586Z,10.15
2018-12-07T17:48:26.883Z,10.12
2018-12-07T17:50:56.696Z,10.11
2018-12-07T17:53:27.372Z,10.10
2018-12-07T17:55:57.768Z,10.13
2018-12-07T17:58:28.196Z,10.14
2018-12-07T18:00:59.737Z,10.16
2018-12-07T18:03:29.530Z,10.15
2018-12-07T18:05:59.363Z,10.16
2018-12-07T18:08:29.366Z,10.14
2018-12-07T18:10:59.736Z,10.09
2018-12-07T18:20:41.045Z,10.05
2018-12-07T18:23:11.011Z,10.10
2018-12-07T18:25:41.007Z,10.01
2018-12-07T18:28:10.936Z,9.98
2018-12-07T18:30:41.135Z,9.95
2018-12-07T18:33:11.577Z,9.94
2018-12-07T18:35:41.605Z,9.93
2018-12-07T18:38:11.704Z,9.93
2018-12-07T18:40:41.900Z,9.92
2018-12-07T18:43:12.036Z,9.93
2018-12-07T18:45:42.389Z,9.89
2018-12-07T18:48:12.541Z,9.83
2018-12-07T18:50:42.887Z,9.81
2018-12-07T18:53:13.474Z,9.77
2018-12-07T18:55:43.380Z,9.71
2018-12-07T18:58:14.512Z,9.69
2018-12-07T19:00:44.820Z,9.64
2018-12-07T19:03:15.284Z,9.66
2018-12-07T19:05:45.552Z,9.63
2018-12-07T19:08:16.255Z,9.63
2018-12-07T19:10:46.451Z,9.57
2018-12-07T19:13:16.572Z,9.50
2018-12-07T19:15:46.736Z,9.46
2018-12-07T19:18:17.103Z,9.43
2018-12-07T19:20:47.582Z,9.41
2018-12-07T19:23:17.946Z,9.41
2018-12-07T19:25:48.161Z,9.35
2018-12-07T19:28:18.413Z,9.39
2018-12-07T19:30:49.847Z,9.39
2018-12-07T19:33:20.257Z,9.36
2018-12-07T19:35:50.408Z,9.35
2018-12-07T19:38:20.518Z,9.36
2018-12-07T19:40:51.078Z,9.36
2018-12-07T19:43:21.188Z,9.33
2018-12-07T19:45:51.571Z,9.33
2018-12-07T19:48:21.641Z,9.31
2018-12-07T19:50:51.770Z,9.31
2018-12-07T19:53:21.909Z,9.32
2018-12-07T19:55:52.045Z,9.35
2018-12-07T19:58:21.962Z,9.36
2018-12-07T20:00:52.213Z,9.34
2018-12-07T20:03:22.187Z,9.40
2018-12-07T20:05:52.221Z,9.47
2018-12-07T20:08:22.623Z,9.47
2018-12-07T20:10:52.708Z,9.47
2018-12-07T20:13:22.487Z,9.48
2018-12-07T20:15:53.199Z,9.52
2018-12-07T20:18:23.315Z,9.61
2018-12-07T20:20:53.539Z,9.65
2018-12-07T20:23:23.830Z,9.68
2018-12-07T20:25:53.902Z,9.68
2018-12-07T20:28:24.130Z,9.62
2018-12-07T20:30:54.337Z,9.55
2018-12-07T20:33:24.718Z,9.46
2018-12-07T20:35:55.006Z,9.40
2018-12-07T20:38:25.915Z,9.29
2018-12-07T20:40:56.071Z,9.28
2018-12-07T20:43:26.304Z,9.22
2018-12-07T20:45:56.549Z,9.18
2018-12-07T20:48:26.724Z,9.12
2018-12-07T20:50:57.839Z,9.08
2018-12-07T20:53:28.186Z,8.90
2018-12-07T20:55:58.453Z,8.60
2018-12-07T20:58:28.985Z,8.36
2018-12-07T21:00:59.563Z,8.28
2018-12-07T21:04:44.715Z,8.22
2018-12-07T21:07:38.479Z,8.17
2018-12-07T21:10:39.905Z,8.13
2018-12-07T21:14:37.342Z,8.14
2018-12-07T21:17:14.906Z,8.02
2018-12-07T21:19:57.251Z,8.01
2018-12-07T21:22:27.290Z,8.00
2018-12-07T21:28:33.685Z,7.88
2018-12-07T21:31:04.443Z,7.80
2018-12-07T21:34:47.947Z,7.78
2018-12-07T21:37:18.226Z,7.76
2018-12-07T21:39:52.393Z,7.80
2018-12-07T21:42:22.664Z,7.82
2018-12-07T21:44:52.949Z,7.84
2018-12-07T21:47:35.939Z,7.85
2018-12-07T21:50:14.255Z,7.77
2018-12-07T21:52:44.415Z,7.77
2018-12-07T21:55:14.752Z,7.78
2018-12-07T21:57:45.123Z,7.71
2018-12-07T22:00:15.540Z,7.71
2018-12-07T22:02:45.843Z,7.72
2018-12-07T22:05:16.013Z,7.80
2018-12-07T22:07:46.379Z,7.79
2018-12-07T22:10:16.534Z,7.84
2018-12-07T22:12:46.751Z,7.83
2018-12-07T22:15:17.115Z,7.81
2018-12-07T22:17:47.834Z,7.77
2018-12-07T22:20:18.276Z,7.67
2018-12-07T22:22:48.368Z,7.55
2018-12-07T22:25:18.385Z,7.49
2018-12-07T22:27:49.091Z,7.41
2018-12-07T22:30:20.342Z,7.33
2018-12-07T22:32:50.377Z,7.20
2018-12-07T22:38:56.336Z,6.99
2018-12-07T22:41:26.464Z,7.00
2018-12-07T22:43:56.609Z,6.93
2018-12-07T22:46:26.656Z,6.94
2018-12-07T22:48:57.400Z,6.93
2018-12-07T22:51:27.629Z,6.86
2018-12-07T22:53:57.461Z,6.81
2018-12-07T22:56:27.253Z,6.74
2018-12-07T22:58:57.085Z,6.64
2018-12-07T23:01:27.987Z,6.64
2018-12-07T23:03:57.980Z,6.59
2018-12-07T23:06:27.833Z,6.65
2018-12-07T23:08:57.673Z,6.63
2018-12-07T23:11:27.493Z,6.64
2018-12-07T23:13:57.393Z,6.65
2018-12-07T23:16:27.319Z,6.64
2018-12-07T23:18:57.143Z,6.64
2018-12-07T23:21:26.967Z,6.65
2018-12-07T23:23:56.737Z,6.69
2018-12-07T23:26:28.669Z,6.63
2018-12-07T23:28:58.560Z,6.57
2018-12-07T23:31:28.359Z,6.56
2018-12-07T23:33:58.179Z,6.47
2018-12-07T23:36:28.249Z,6.50
2018-12-07T23:38:58.093Z,6.47
2018-12-07T23:41:28.095Z,6.50
2018-12-07T23:43:57.879Z,6.52
2018-12-07T23:46:27.701Z,6.51
2018-12-07T23:48:57.489Z,6.51
2018-12-07T23:51:27.393Z,6.53
2018-12-07T23:53:57.285Z,6.48
2018-12-07T23:56:27.129Z,6.36
2018-12-07T23:58:57.089Z,6.25
